sensor_id;sensor_type;location;lat;lon;timestamp;P1;durP1;ratioP1;P2;durP2;ratioP2
35110;SDS011;21290;50.158;8.658;2023-02-28T00:00:16;5.00;;;4.00;;
35110;SDS011;21290;50.158;8.658;2023-02-28T00:02:43;7.93;;;3.77;;
35110;SDS011;21290;50.158;8.658;2023-02-28T00:05:12;5.30;;;4.13;;
35110;SDS011;21290;50.158;8.658;2023-02-28T00:07:40;8.55;;;3.55;;
35110;SDS011;21290;50.158;8.658;2023-02-28T00:10:09;5.90;;;4.23;;
35110;SDS011;21290;50.158;8.658;2023-02-28T00:12:38;7.70;;;4.07;;
35110;SDS011;21290;50.158;8.658;2023-02-28T00:15:06;5.30;;;4.00;;
35110;SDS011;21290;50.158;8.658;2023-02-28T00:17:34;9.05;;;4.50;;
35110;SDS011;21290;50.158;8.658;2023-02-28T00:20:00;4.67;;;3.90;;
35110;SDS011;21290;50.158;8.658;2023-02-28T00:22:38;6.43;;;4.03;;
35110;SDS011;21290;50.158;8.658;2023-02-28T00:25:06;4.05;;;3.13;;
35110;SDS011;21290;50.158;8.658;2023-02-28T00:27:39;5.53;;;3.80;;
35110;SDS011;21290;50.158;8.658;2023-02-28T00:30:08;6.57;;;4.10;;
35110;SDS011;21290;50.158;8.658;2023-02-28T00:32:36;6.00;;;3.97;;
35110;SDS011;21290;50.158;8.658;2023-02-28T00:35:04;5.97;;;4.10;;
35110;SDS011;21290;50.158;8.658;2023-02-28T00:37:31;5.17;;;4.20;;
35110;SDS011;21290;50.158;8.658;2023-02-28T00:39:57;4.73;;;3.70;;
35110;SDS011;21290;50.158;8.658;2023-02-28T00:42:24;5.57;;;3.93;;
35110;SDS011;21290;50.158;8.658;2023-02-28T00:44:51;8.57;;;4.30;;
35110;SDS011;21290;50.158;8.658;2023-02-28T00:47:17;7.17;;;4.20;;
35110;SDS011;21290;50.158;8.658;2023-02-28T00:49:44;7.63;;;4.07;;
35110;SDS011;21290;50.158;8.658;2023-02-28T00:52:10;6.10;;;4.17;;
35110;SDS011;21290;50.158;8.658;2023-02-28T00:54:37;4.97;;;4.20;;
35110;SDS011;21290;50.158;8.658;2023-02-28T00:57:04;6.37;;;4.23;;
35110;SDS011;21290;50.158;8.658;2023-02-28T00:59:30;6.17;;;4.37;;
35110;SDS011;21290;50.158;8.658;2023-02-28T01:01:57;8.07;;;4.77;;
35110;SDS011;21290;50.158;8.658;2023-02-28T01:04:24;8.43;;;4.93;;
35110;SDS011;21290;50.158;8.658;2023-02-28T01:06:50;11.43;;;5.70;;
35110;SDS011;21290;50.158;8.658;2023-02-28T01:09:17;7.40;;;4.60;;
35110;SDS011;21290;50.158;8.658;2023-02-28T01:11:43;5.20;;;4.70;;
35110;SDS011;21290;50.158;8.658;2023-02-28T01:14:14;6.60;;;4.93;;
35110;SDS011;21290;50.158;8.658;2023-02-28T01:16:42;6.87;;;4.60;;
35110;SDS011;21290;50.158;8.658;2023-02-28T01:19:09;5.53;;;4.80;;
35110;SDS011;21290;50.158;8.658;2023-02-28T01:21:35;7.37;;;4.90;;
35110;SDS011;21290;50.158;8.658;2023-02-28T01:24:03;8.33;;;5.30;;
35110;SDS011;21290;50.158;8.658;2023-02-28T01:26:30;8.17;;;5.30;;
35110;SDS011;21290;50.158;8.658;2023-02-28T01:28:57;6.93;;;5.27;;
35110;SDS011;21290;50.158;8.658;2023-02-28T01:31:24;7.73;;;5.33;;
35110;SDS011;21290;50.158;8.658;2023-02-28T01:33:52;10.47;;;5.03;;
35110;SDS011;21290;50.158;8.658;2023-02-28T01:36:20;6.07;;;4.90;;
35110;SDS011;21290;50.158;8.658;2023-02-28T01:38:48;7.53;;;5.20;;
35110;SDS011;21290;50.158;8.658;2023-02-28T01:41:25;6.00;;;5.00;;
35110;SDS011;21290;50.158;8.658;2023-02-28T01:43:56;6.20;;;5.20;;
35110;SDS011;21290;50.158;8.658;2023-02-28T01:46:25;7.80;;;5.40;;
35110;SDS011;21290;50.158;8.658;2023-02-28T01:48:58;6.13;;;5.33;;
35110;SDS011;21290;50.158;8.658;2023-02-28T01:51:35;10.23;;;5.70;;
35110;SDS011;21290;50.158;8.658;2023-02-28T01:54:13;7.78;;;3.70;;
35110;SDS011;21290;50.158;8.658;2023-02-28T01:56:50;7.30;;;5.10;;
35110;SDS011;21290;50.158;8.658;2023-02-28T01:59:27;7.00;;;5.23;;
35110;SDS011;21290;50.158;8.658;2023-02-28T02:02:06;9.60;;;5.90;;
35110;SDS011;21290;50.158;8.658;2023-02-28T02:04:37;7.47;;;5.30;;
35110;SDS011;21290;50.158;8.658;2023-02-28T02:07:06;9.33;;;6.50;;
35110;SDS011;21290;50.158;8.658;2023-02-28T02:09:34;8.67;;;5.43;;
35110;SDS011;21290;50.158;8.658;2023-02-28T02:12:01;10.43;;;5.43;;
35110;SDS011;21290;50.158;8.658;2023-02-28T02:14:48;10.17;;;5.80;;
35110;SDS011;21290;50.158;8.658;2023-02-28T02:17:32;7.00;;;5.30;;
35110;SDS011;21290;50.158;8.658;2023-02-28T02:28:58;8.60;;;5.40;;
35110;SDS011;21290;50.158;8.658;2023-02-28T02:31:51;7.83;;;5.20;;
35110;SDS011;21290;50.158;8.658;2023-02-28T02:40:04;7.53;;;5.47;;
35110;SDS011;21290;50.158;8.658;2023-02-28T02:45:43;6.10;;;4.90;;
35110;SDS011;21290;50.158;8.658;2023-02-28T02:48:18;7.70;;;5.40;;
35110;SDS011;21290;50.158;8.658;2023-02-28T02:50:49;9.17;;;5.43;;
35110;SDS011;21290;50.158;8.658;2023-02-28T02:53:21;9.47;;;5.63;;
35110;SDS011;21290;50.158;8.658;2023-02-28T02:55:54;6.87;;;5.07;;
35110;SDS011;21290;50.158;8.658;2023-02-28T02:58:24;5.18;;;3.97;;
35110;SDS011;21290;50.158;8.658;2023-02-28T03:00:57;9.00;;;6.00;;
35110;SDS011;21290;50.158;8.658;2023-02-28T03:03:27;7.60;;;5.53;;
35110;SDS011;21290;50.158;8.658;2023-02-28T03:05:56;8.32;;;6.07;;
35110;SDS011;21290;50.158;8.658;2023-02-28T03:08:25;6.67;;;5.40;;
35110;SDS011;21290;50.158;8.658;2023-02-28T03:10:55;7.27;;;5.50;;
35110;SDS011;21290;50.158;8.658;2023-02-28T03:13:31;8.53;;;5.00;;
35110;SDS011;21290;50.158;8.658;2023-02-28T03:24:34;6.63;;;4.90;;
35110;SDS011;21290;50.158;8.658;2023-02-28T03:27:17;7.40;;;5.50;;
35110;SDS011;21290;50.158;8.658;2023-02-28T03:30:42;7.20;;;4.93;;
35110;SDS011;21290;50.158;8.658;2023-02-28T03:33:21;8.43;;;5.43;;
35110;SDS011;21290;50.158;8.658;2023-02-28T03:36:43;7.47;;;5.10;;
35110;SDS011;21290;50.158;8.658;2023-02-28T03:39:28;8.60;;;5.00;;
35110;SDS011;21290;50.158;8.658;2023-02-28T03:42:18;7.80;;;5.70;;
35110;SDS011;21290;50.158;8.658;2023-02-28T03:44:53;7.73;;;5.73;;
35110;SDS011;21290;50.158;8.658;2023-02-28T03:47:30;8.63;;;5.50;;
35110;SDS011;21290;50.158;8.658;2023-02-28T03:50:06;8.37;;;5.80;;
35110;SDS011;21290;50.158;8.658;2023-02-28T03:52:42;6.82;;;5.30;;
35110;SDS011;21290;50.158;8.658;2023-02-28T03:55:32;10.10;;;5.57;;
35110;SDS011;21290;50.158;8.658;2023-02-28T03:58:07;9.83;;;5.63;;
35110;SDS011;21290;50.158;8.658;2023-02-28T04:00:47;8.20;;;5.33;;
35110;SDS011;21290;50.158;8.658;2023-02-28T04:03:19;8.40;;;6.13;;
35110;SDS011;21290;50.158;8.658;2023-02-28T04:05:52;7.90;;;5.83;;
35110;SDS011;21290;50.158;8.658;2023-02-28T04:08:21;9.47;;;6.33;;
35110;SDS011;21290;50.158;8.658;2023-02-28T04:10:51;8.00;;;6.33;;
35110;SDS011;21290;50.158;8.658;2023-02-28T04:13:55;8.67;;;6.23;;
35110;SDS011;21290;50.158;8.658;2023-02-28T04:16:22;8.27;;;6.07;;
35110;SDS011;21290;50.158;8.658;2023-02-28T04:19:00;8.88;;;6.43;;
35110;SDS011;21290;50.158;8.658;2023-02-28T04:21:32;9.27;;;6.43;;
35110;SDS011;21290;50.158;8.658;2023-02-28T04:24:01;10.00;;;6.67;;
35110;SDS011;21290;50.158;8.658;2023-02-28T04:26:29;12.63;;;6.93;;
35110;SDS011;21290;50.158;8.658;2023-02-28T04:29:00;13.47;;;6.57;;
35110;SDS011;21290;50.158;8.658;2023-02-28T04:31:27;8.80;;;6.47;;
35110;SDS011;21290;50.158;8.658;2023-02-28T04:33:54;10.97;;;6.60;;
35110;SDS011;21290;50.158;8.658;2023-02-28T04:36:21;9.50;;;6.37;;
35110;SDS011;21290;50.158;8.658;2023-02-28T04:38:49;8.60;;;6.40;;
35110;SDS011;21290;50.158;8.658;2023-02-28T04:41:16;8.77;;;6.17;;
35110;SDS011;21290;50.158;8.658;2023-02-28T04:43:43;8.90;;;6.17;;
35110;SDS011;21290;50.158;8.658;2023-02-28T04:46:09;8.50;;;6.10;;
35110;SDS011;21290;50.158;8.658;2023-02-28T04:48:37;9.07;;;6.43;;
35110;SDS011;21290;50.158;8.658;2023-02-28T04:51:05;8.20;;;5.83;;
35110;SDS011;21290;50.158;8.658;2023-02-28T04:53:34;8.03;;;6.17;;
35110;SDS011;21290;50.158;8.658;2023-02-28T04:56:05;10.07;;;7.00;;
35110;SDS011;21290;50.158;8.658;2023-02-28T04:58:33;8.90;;;6.43;;
35110;SDS011;21290;50.158;8.658;2023-02-28T05:01:04;11.43;;;6.63;;
35110;SDS011;21290;50.158;8.658;2023-02-28T05:03:38;14.20;;;6.63;;
35110;SDS011;21290;50.158;8.658;2023-02-28T05:06:08;7.17;;;5.33;;
35110;SDS011;21290;50.158;8.658;2023-02-28T05:08:36;8.03;;;5.83;;
35110;SDS011;21290;50.158;8.658;2023-02-28T05:11:03;10.80;;;5.70;;
35110;SDS011;21290;50.158;8.658;2023-02-28T05:13:31;10.52;;;5.80;;
35110;SDS011;21290;50.158;8.658;2023-02-28T05:15:58;7.83;;;5.30;;
35110;SDS011;21290;50.158;8.658;2023-02-28T05:18:25;7.83;;;5.40;;
35110;SDS011;21290;50.158;8.658;2023-02-28T05:20:51;6.87;;;4.83;;
35110;SDS011;21290;50.158;8.658;2023-02-28T05:23:18;8.87;;;5.67;;
35110;SDS011;21290;50.158;8.658;2023-02-28T05:25:47;8.73;;;5.70;;
35110;SDS011;21290;50.158;8.658;2023-02-28T05:28:14;7.80;;;5.30;;
35110;SDS011;21290;50.158;8.658;2023-02-28T05:30:40;8.00;;;5.57;;
35110;SDS011;21290;50.158;8.658;2023-02-28T05:33:09;14.53;;;5.00;;
35110;SDS011;21290;50.158;8.658;2023-02-28T05:35:40;8.30;;;5.37;;
35110;SDS011;21290;50.158;8.658;2023-02-28T05:38:10;7.93;;;6.07;;
35110;SDS011;21290;50.158;8.658;2023-02-28T05:40:40;11.87;;;5.50;;
35110;SDS011;21290;50.158;8.658;2023-02-28T05:43:08;14.43;;;5.80;;
35110;SDS011;21290;50.158;8.658;2023-02-28T05:45:36;6.33;;;5.10;;
35110;SDS011;21290;50.158;8.658;2023-02-28T05:48:03;6.97;;;4.93;;
35110;SDS011;21290;50.158;8.658;2023-02-28T05:50:30;6.90;;;5.00;;
35110;SDS011;21290;50.158;8.658;2023-02-28T05:52:57;7.30;;;5.07;;
35110;SDS011;21290;50.158;8.658;2023-02-28T05:55:23;7.87;;;5.07;;
35110;SDS011;21290;50.158;8.658;2023-02-28T05:57:50;7.20;;;5.10;;
35110;SDS011;21290;50.158;8.658;2023-02-28T06:00:16;7.30;;;4.87;;
35110;SDS011;21290;50.158;8.658;2023-02-28T06:02:43;6.50;;;4.83;;
35110;SDS011;21290;50.158;8.658;2023-02-28T06:05:14;7.07;;;4.93;;
35110;SDS011;21290;50.158;8.658;2023-02-28T06:07:43;8.27;;;4.87;;
35110;SDS011;21290;50.158;8.658;2023-02-28T06:10:10;13.73;;;5.43;;
35110;SDS011;21290;50.158;8.658;2023-02-28T06:12:38;8.10;;;5.07;;
35110;SDS011;21290;50.158;8.658;2023-02-28T06:15:05;6.63;;;4.80;;
35110;SDS011;21290;50.158;8.658;2023-02-28T06:17:32;6.37;;;4.37;;
35110;SDS011;21290;50.158;8.658;2023-02-28T06:19:58;10.17;;;5.87;;
35110;SDS011;21290;50.158;8.658;2023-02-28T06:22:25;9.73;;;5.57;;
35110;SDS011;21290;50.158;8.658;2023-02-28T06:24:52;6.40;;;4.40;;
35110;SDS011;21290;50.158;8.658;2023-02-28T06:27:18;6.13;;;4.73;;
35110;SDS011;21290;50.158;8.658;2023-02-28T06:29:46;9.70;;;5.27;;
35110;SDS011;21290;50.158;8.658;2023-02-28T06:32:13;7.00;;;4.37;;
35110;SDS011;21290;50.158;8.658;2023-02-28T06:34:39;20.50;;;8.17;;
35110;SDS011;21290;50.158;8.658;2023-02-28T06:37:06;14.17;;;6.30;;
35110;SDS011;21290;50.158;8.658;2023-02-28T06:39:33;7.17;;;4.90;;
35110;SDS011;21290;50.158;8.658;2023-02-28T06:42:00;7.50;;;4.57;;
35110;SDS011;21290;50.158;8.658;2023-02-28T06:44:26;7.27;;;4.50;;
35110;SDS011;21290;50.158;8.658;2023-02-28T06:46:53;7.43;;;4.27;;
35110;SDS011;21290;50.158;8.658;2023-02-28T06:49:19;7.27;;;4.90;;
35110;SDS011;21290;50.158;8.658;2023-02-28T06:51:46;5.97;;;4.60;;
35110;SDS011;21290;50.158;8.658;2023-02-28T06:54:13;6.00;;;3.90;;
35110;SDS011;21290;50.158;8.658;2023-02-28T06:56:39;17.47;;;7.23;;
35110;SDS011;21290;50.158;8.658;2023-02-28T06:59:06;8.30;;;4.60;;
35110;SDS011;21290;50.158;8.658;2023-02-28T07:01:32;6.00;;;3.90;;
35110;SDS011;21290;50.158;8.658;2023-02-28T07:04:00;8.07;;;4.13;;
35110;SDS011;21290;50.158;8.658;2023-02-28T07:06:27;5.07;;;3.90;;
35110;SDS011;21290;50.158;8.658;2023-02-28T07:08:54;6.53;;;3.95;;
35110;SDS011;21290;50.158;8.658;2023-02-28T07:11:21;5.53;;;3.67;;
35110;SDS011;21290;50.158;8.658;2023-02-28T07:13:51;5.22;;;3.47;;
35110;SDS011;21290;50.158;8.658;2023-02-28T07:16:19;5.88;;;3.78;;
35110;SDS011;21290;50.158;8.658;2023-02-28T07:18:48;4.20;;;2.90;;
35110;SDS011;21290;50.158;8.658;2023-02-28T07:21:15;6.38;;;4.03;;
35110;SDS011;21290;50.158;8.658;2023-02-28T07:23:42;5.75;;;3.33;;
35110;SDS011;21290;50.158;8.658;2023-02-28T07:26:13;6.80;;;3.70;;
35110;SDS011;21290;50.158;8.658;2023-02-28T07:28:42;6.85;;;4.38;;
35110;SDS011;21290;50.158;8.658;2023-02-28T07:31:09;5.28;;;3.80;;
35110;SDS011;21290;50.158;8.658;2023-02-28T07:33:37;6.40;;;4.05;;
35110;SDS011;21290;50.158;8.658;2023-02-28T07:36:04;9.48;;;4.05;;
35110;SDS011;21290;50.158;8.658;2023-02-28T07:38:40;8.65;;;4.00;;
35110;SDS011;21290;50.158;8.658;2023-02-28T07:41:13;8.68;;;3.97;;
35110;SDS011;21290;50.158;8.658;2023-02-28T07:43:41;8.52;;;4.50;;
35110;SDS011;21290;50.158;8.658;2023-02-28T07:46:09;9.77;;;4.13;;
35110;SDS011;21290;50.158;8.658;2023-02-28T07:51:04;6.15;;;4.30;;
35110;SDS011;21290;50.158;8.658;2023-02-28T07:53:31;6.38;;;4.18;;
35110;SDS011;21290;50.158;8.658;2023-02-28T07:55:58;5.65;;;4.18;;
35110;SDS011;21290;50.158;8.658;2023-02-28T07:58:27;7.97;;;3.70;;
35110;SDS011;21290;50.158;8.658;2023-02-28T08:00:55;5.63;;;4.47;;
35110;SDS011;21290;50.158;8.658;2023-02-28T08:03:23;4.50;;;3.83;;
35110;SDS011;21290;50.158;8.658;2023-02-28T08:05:50;8.10;;;4.65;;
35110;SDS011;21290;50.158;8.658;2023-02-28T08:08:18;4.13;;;3.53;;
35110;SDS011;21290;50.158;8.658;2023-02-28T08:10:45;9.02;;;4.05;;
35110;SDS011;21290;50.158;8.658;2023-02-28T08:13:12;5.90;;;5.07;;
35110;SDS011;21290;50.158;8.658;2023-02-28T08:15:40;6.70;;;5.03;;
35110;SDS011;21290;50.158;8.658;2023-02-28T08:18:08;9.07;;;4.40;;
35110;SDS011;21290;50.158;8.658;2023-02-28T08:20:35;5.40;;;4.35;;
35110;SDS011;21290;50.158;8.658;2023-02-28T08:23:02;5.65;;;4.60;;
35110;SDS011;21290;50.158;8.658;2023-02-28T08:25:28;8.25;;;4.10;;
35110;SDS011;21290;50.158;8.658;2023-02-28T08:27:55;4.20;;;3.60;;
35110;SDS011;21290;50.158;8.658;2023-02-28T08:30:22;4.40;;;3.63;;
35110;SDS011;21290;50.158;8.658;2023-02-28T08:32:48;6.95;;;4.03;;
35110;SDS011;21290;50.158;8.658;2023-02-28T08:35:15;5.13;;;3.40;;
35110;SDS011;21290;50.158;8.658;2023-02-28T08:37:42;4.35;;;3.30;;
35110;SDS011;21290;50.158;8.658;2023-02-28T08:40:08;6.70;;;3.65;;
35110;SDS011;21290;50.158;8.658;2023-02-28T08:42:36;4.53;;;4.05;;
35110;SDS011;21290;50.158;8.658;2023-02-28T08:45:03;5.65;;;4.57;;
35110;SDS011;21290;50.158;8.658;2023-02-28T08:47:31;3.90;;;3.50;;
35110;SDS011;21290;50.158;8.658;2023-02-28T08:49:58;5.72;;;3.70;;
35110;SDS011;21290;50.158;8.658;2023-02-28T08:52:25;3.50;;;3.10;;
35110;SDS011;21290;50.158;8.658;2023-02-28T08:54:51;4.05;;;3.20;;
35110;SDS011;21290;50.158;8.658;2023-02-28T08:57:18;6.47;;;3.47;;
35110;SDS011;21290;50.158;8.658;2023-02-28T08:59:44;4.00;;;3.25;;
35110;SDS011;21290;50.158;8.658;2023-02-28T09:02:12;4.63;;;3.25;;
35110;SDS011;21290;50.158;8.658;2023-02-28T09:04:40;6.13;;;3.40;;
35110;SDS011;21290;50.158;8.658;2023-02-28T09:07:07;4.88;;;3.28;;
35110;SDS011;21290;50.158;8.658;2023-02-28T09:09:34;4.15;;;2.75;;
35110;SDS011;21290;50.158;8.658;2023-02-28T09:12:00;4.13;;;3.30;;
35110;SDS011;21290;50.158;8.658;2023-02-28T09:14:28;4.25;;;3.30;;
35110;SDS011;21290;50.158;8.658;2023-02-28T09:16:55;4.72;;;3.00;;
35110;SDS011;21290;50.158;8.658;2023-02-28T09:19:22;7.85;;;3.50;;
35110;SDS011;21290;50.158;8.658;2023-02-28T09:21:50;4.03;;;3.10;;
35110;SDS011;21290;50.158;8.658;2023-02-28T09:24:18;11.32;;;3.20;;
35110;SDS011;21290;50.158;8.658;2023-02-28T09:26:47;4.32;;;2.97;;
35110;SDS011;21290;50.158;8.658;2023-02-28T09:29:30;3.65;;;2.90;;
35110;SDS011;21290;50.158;8.658;2023-02-28T09:31:58;3.88;;;3.03;;
35110;SDS011;21290;50.158;8.658;2023-02-28T09:36:57;3.40;;;3.10;;
35110;SDS011;21290;50.158;8.658;2023-02-28T09:39:25;5.78;;;3.22;;
35110;SDS011;21290;50.158;8.658;2023-02-28T09:41:54;4.65;;;3.20;;
35110;SDS011;21290;50.158;8.658;2023-02-28T09:44:46;3.72;;;2.97;;
35110;SDS011;21290;50.158;8.658;2023-02-28T09:49:57;5.25;;;3.38;;
35110;SDS011;21290;50.158;8.658;2023-02-28T09:52:33;4.47;;;3.40;;
35110;SDS011;21290;50.158;8.658;2023-02-28T09:55:38;4.85;;;3.30;;
35110;SDS011;21290;50.158;8.658;2023-02-28T09:58:37;4.47;;;3.38;;
35110;SDS011;21290;50.158;8.658;2023-02-28T10:01:21;5.13;;;3.58;;
35110;SDS011;21290;50.158;8.658;2023-02-28T10:07:11;4.70;;;3.58;;
35110;SDS011;21290;50.158;8.658;2023-02-28T10:09:53;5.18;;;3.83;;
35110;SDS011;21290;50.158;8.658;2023-02-28T10:12:24;4.45;;;3.88;;
35110;SDS011;21290;50.158;8.658;2023-02-28T10:14:56;5.78;;;3.60;;
35110;SDS011;21290;50.158;8.658;2023-02-28T10:17:28;5.43;;;3.90;;
35110;SDS011;21290;50.158;8.658;2023-02-28T10:20:21;6.22;;;3.90;;
35110;SDS011;21290;50.158;8.658;2023-02-28T10:25:36;5.93;;;4.38;;
35110;SDS011;21290;50.158;8.658;2023-02-28T10:28:14;5.47;;;4.15;;
35110;SDS011;21290;50.158;8.658;2023-02-28T10:30:46;5.13;;;4.18;;
35110;SDS011;21290;50.158;8.658;2023-02-28T10:33:21;5.30;;;4.07;;
35110;SDS011;21290;50.158;8.658;2023-02-28T10:36:01;8.02;;;4.43;;
35110;SDS011;21290;50.158;8.658;2023-02-28T10:38:34;5.43;;;4.22;;
35110;SDS011;21290;50.158;8.658;2023-02-28T10:43:39;5.55;;;4.40;;
35110;SDS011;21290;50.158;8.658;2023-02-28T10:46:15;6.55;;;4.63;;
35110;SDS011;21290;50.158;8.658;2023-02-28T10:49:05;6.40;;;4.78;;
35110;SDS011;21290;50.158;8.658;2023-02-28T10:51:40;5.72;;;4.18;;
35110;SDS011;21290;50.158;8.658;2023-02-28T10:54:14;6.90;;;4.30;;
35110;SDS011;21290;50.158;8.658;2023-02-28T10:57:04;5.93;;;4.00;;
35110;SDS011;21290;50.158;8.658;2023-02-28T10:59:43;5.68;;;4.30;;
35110;SDS011;21290;50.158;8.658;2023-02-28T11:02:29;4.30;;;3.65;;
35110;SDS011;21290;50.158;8.658;2023-02-28T11:04:59;4.95;;;3.92;;
35110;SDS011;21290;50.158;8.658;2023-02-28T11:07:26;5.25;;;4.25;;
35110;SDS011;21290;50.158;8.658;2023-02-28T11:10:06;4.85;;;4.00;;
35110;SDS011;21290;50.158;8.658;2023-02-28T11:12:36;5.68;;;4.32;;
35110;SDS011;21290;50.158;8.658;2023-02-28T11:15:24;4.40;;;3.63;;
35110;SDS011;21290;50.158;8.658;2023-02-28T11:17:53;6.55;;;3.78;;
35110;SDS011;21290;50.158;8.658;2023-02-28T11:20:25;4.28;;;3.58;;
35110;SDS011;21290;50.158;8.658;2023-02-28T11:22:54;4.05;;;3.65;;
35110;SDS011;21290;50.158;8.658;2023-02-28T11:25:24;8.80;;;3.93;;
35110;SDS011;21290;50.158;8.658;2023-02-28T11:27:58;4.53;;;3.75;;
35110;SDS011;21290;50.158;8.658;2023-02-28T11:30:33;5.10;;;3.78;;
35110;SDS011;21290;50.158;8.658;2023-02-28T11:35:47;4.97;;;3.80;;
35110;SDS011;21290;50.158;8.658;2023-02-28T11:38:15;8.90;;;4.57;;
35110;SDS011;21290;50.158;8.658;2023-02-28T11:40:43;6.35;;;4.22;;
35110;SDS011;21290;50.158;8.658;2023-02-28T11:46:27;3.75;;;3.35;;
35110;SDS011;21290;50.158;8.658;2023-02-28T11:51:27;4.72;;;4.00;;
35110;SDS011;21290;50.158;8.658;2023-02-28T11:56:46;5.88;;;4.63;;
35110;SDS011;21290;50.158;8.658;2023-02-28T12:02:24;7.13;;;4.53;;
35110;SDS011;21290;50.158;8.658;2023-02-28T12:05:10;4.60;;;4.00;;
35110;SDS011;21290;50.158;8.658;2023-02-28T12:07:57;8.85;;;4.60;;
35110;SDS011;21290;50.158;8.658;2023-02-28T12:13:22;5.80;;;4.93;;
35110;SDS011;21290;50.158;8.658;2023-02-28T12:16:10;7.88;;;4.95;;
35110;SDS011;21290;50.158;8.658;2023-02-28T12:18:59;7.45;;;4.85;;
35110;SDS011;21290;50.158;8.658;2023-02-28T12:27:48;7.10;;;5.00;;
35110;SDS011;21290;50.158;8.658;2023-02-28T12:32:52;7.60;;;4.88;;
35110;SDS011;21290;50.158;8.658;2023-02-28T12:35:48;7.20;;;4.35;;
35110;SDS011;21290;50.158;8.658;2023-02-28T12:38:19;10.48;;;4.82;;
35110;SDS011;21290;50.158;8.658;2023-02-28T12:43:22;6.68;;;5.13;;
35110;SDS011;21290;50.158;8.658;2023-02-28T12:45:58;8.07;;;5.20;;
35110;SDS011;21290;50.158;8.658;2023-02-28T12:51:22;7.68;;;4.78;;
35110;SDS011;21290;50.158;8.658;2023-02-28T12:57:40;6.45;;;5.15;;
35110;SDS011;21290;50.158;8.658;2023-02-28T13:00:13;7.97;;;4.38;;
35110;SDS011;21290;50.158;8.658;2023-02-28T13:05:26;6.75;;;4.60;;
35110;SDS011;21290;50.158;8.658;2023-02-28T13:10:45;6.65;;;4.72;;
35110;SDS011;21290;50.158;8.658;2023-02-28T13:13:14;8.52;;;4.88;;
35110;SDS011;21290;50.158;8.658;2023-02-28T13:15:56;6.40;;;4.78;;
35110;SDS011;21290;50.158;8.658;2023-02-28T13:18:27;9.18;;;4.95;;
35110;SDS011;21290;50.158;8.658;2023-02-28T13:20:59;6.85;;;4.88;;
35110;SDS011;21290;50.158;8.658;2023-02-28T13:26:02;6.47;;;5.07;;
35110;SDS011;21290;50.158;8.658;2023-02-28T13:28:56;10.82;;;4.60;;
35110;SDS011;21290;50.158;8.658;2023-02-28T13:32:32;6.75;;;4.60;;
35110;SDS011;21290;50.158;8.658;2023-02-28T13:42:32;7.97;;;5.32;;
35110;SDS011;21290;50.158;8.658;2023-02-28T13:52:58;5.93;;;4.63;;
35110;SDS011;21290;50.158;8.658;2023-02-28T14:05:01;11.35;;;5.57;;
35110;SDS011;21290;50.158;8.658;2023-02-28T14:07:46;11.07;;;5.07;;
35110;SDS011;21290;50.158;8.658;2023-02-28T14:10:21;9.52;;;5.28;;
35110;SDS011;21290;50.158;8.658;2023-02-28T14:12:58;16.17;;;4.90;;
35110;SDS011;21290;50.158;8.658;2023-02-28T14:18:13;5.70;;;4.00;;
35110;SDS011;21290;50.158;8.658;2023-02-28T14:20:54;6.88;;;5.13;;
35110;SDS011;21290;50.158;8.658;2023-02-28T14:26:32;8.68;;;4.85;;
35110;SDS011;21290;50.158;8.658;2023-02-28T14:38:29;7.63;;;5.30;;
35110;SDS011;21290;50.158;8.658;2023-02-28T14:41:02;9.23;;;5.70;;
35110;SDS011;21290;50.158;8.658;2023-02-28T14:43:32;6.55;;;5.10;;
35110;SDS011;21290;50.158;8.658;2023-02-28T14:46:00;9.30;;;6.07;;
35110;SDS011;21290;50.158;8.658;2023-02-28T14:48:28;7.95;;;5.13;;
35110;SDS011;21290;50.158;8.658;2023-02-28T14:50:56;8.32;;;5.50;;
35110;SDS011;21290;50.158;8.658;2023-02-28T14:53:28;8.70;;;6.00;;
35110;SDS011;21290;50.158;8.658;2023-02-28T14:56:01;8.00;;;5.50;;
35110;SDS011;21290;50.158;8.658;2023-02-28T14:58:28;7.45;;;5.65;;
35110;SDS011;21290;50.158;8.658;2023-02-28T15:00:58;7.00;;;5.05;;
35110;SDS011;21290;50.158;8.658;2023-02-28T15:06:05;9.30;;;5.60;;
35110;SDS011;21290;50.158;8.658;2023-02-28T15:08:38;9.40;;;6.00;;
35110;SDS011;21290;50.158;8.658;2023-02-28T15:11:06;9.07;;;5.72;;
35110;SDS011;21290;50.158;8.658;2023-02-28T15:13:42;7.45;;;4.80;;
35110;SDS011;21290;50.158;8.658;2023-02-28T15:18:52;6.82;;;5.32;;
35110;SDS011;21290;50.158;8.658;2023-02-28T15:23:57;9.02;;;5.32;;
35110;SDS011;21290;50.158;8.658;2023-02-28T15:26:36;6.25;;;4.85;;
35110;SDS011;21290;50.158;8.658;2023-02-28T15:29:11;9.73;;;5.55;;
35110;SDS011;21290;50.158;8.658;2023-02-28T15:31:46;5.88;;;4.90;;
35110;SDS011;21290;50.158;8.658;2023-02-28T15:34:34;7.18;;;5.20;;
35110;SDS011;21290;50.158;8.658;2023-02-28T15:40:13;8.93;;;5.07;;
35110;SDS011;21290;50.158;8.658;2023-02-28T15:42:43;9.55;;;5.40;;
35110;SDS011;21290;50.158;8.658;2023-02-28T15:45:44;10.48;;;6.13;;
35110;SDS011;21290;50.158;8.658;2023-02-28T15:48:17;8.68;;;5.72;;
35110;SDS011;21290;50.158;8.658;2023-02-28T15:50:49;7.50;;;5.38;;
35110;SDS011;21290;50.158;8.658;2023-02-28T15:53:21;7.70;;;5.38;;
35110;SDS011;21290;50.158;8.658;2023-02-28T15:55:53;8.73;;;5.47;;
35110;SDS011;21290;50.158;8.658;2023-02-28T15:58:22;8.05;;;5.40;;
35110;SDS011;21290;50.158;8.658;2023-02-28T16:01:00;7.63;;;5.30;;
35110;SDS011;21290;50.158;8.658;2023-02-28T16:04:03;6.65;;;5.32;;
35110;SDS011;21290;50.158;8.658;2023-02-28T16:06:41;7.68;;;5.65;;
35110;SDS011;21290;50.158;8.658;2023-02-28T16:09:12;7.32;;;5.30;;
35110;SDS011;21290;50.158;8.658;2023-02-28T16:11:44;8.90;;;5.90;;
35110;SDS011;21290;50.158;8.658;2023-02-28T16:14:14;7.97;;;5.28;;
35110;SDS011;21290;50.158;8.658;2023-02-28T16:16:46;12.13;;;7.70;;
35110;SDS011;21290;50.158;8.658;2023-02-28T16:19:15;8.75;;;5.60;;
35110;SDS011;21290;50.158;8.658;2023-02-28T16:21:42;7.70;;;5.30;;
35110;SDS011;21290;50.158;8.658;2023-02-28T16:24:08;7.82;;;5.40;;
35110;SDS011;21290;50.158;8.658;2023-02-28T16:26:35;9.85;;;6.05;;
35110;SDS011;21290;50.158;8.658;2023-02-28T16:29:05;6.93;;;5.50;;
35110;SDS011;21290;50.158;8.658;2023-02-28T16:31:36;7.93;;;5.57;;
35110;SDS011;21290;50.158;8.658;2023-02-28T16:34:04;7.53;;;5.43;;
35110;SDS011;21290;50.158;8.658;2023-02-28T16:36:31;11.27;;;6.22;;
35110;SDS011;21290;50.158;8.658;2023-02-28T16:38:58;41.35;;;14.25;;
35110;SDS011;21290;50.158;8.658;2023-02-28T16:41:25;10.07;;;5.93;;
35110;SDS011;21290;50.158;8.658;2023-02-28T16:43:54;7.95;;;5.85;;
35110;SDS011;21290;50.158;8.658;2023-02-28T16:46:44;11.90;;;5.60;;
35110;SDS011;21290;50.158;8.658;2023-02-28T16:49:11;8.15;;;5.60;;
35110;SDS011;21290;50.158;8.658;2023-02-28T16:51:38;8.80;;;5.70;;
35110;SDS011;21290;50.158;8.658;2023-02-28T16:54:05;8.32;;;5.72;;
35110;SDS011;21290;50.158;8.658;2023-02-28T16:56:31;13.90;;;5.88;;
35110;SDS011;21290;50.158;8.658;2023-02-28T16:59:00;7.97;;;5.63;;
35110;SDS011;21290;50.158;8.658;2023-02-28T17:01:28;7.55;;;5.45;;
35110;SDS011;21290;50.158;8.658;2023-02-28T17:03:55;7.80;;;5.70;;
35110;SDS011;21290;50.158;8.658;2023-02-28T17:06:23;11.52;;;6.28;;
35110;SDS011;21290;50.158;8.658;2023-02-28T17:08:54;7.93;;;5.68;;
35110;SDS011;21290;50.158;8.658;2023-02-28T17:11:21;7.93;;;6.00;;
35110;SDS011;21290;50.158;8.658;2023-02-28T17:13:48;8.85;;;6.32;;
35110;SDS011;21290;50.158;8.658;2023-02-28T17:19:02;9.50;;;6.18;;
35110;SDS011;21290;50.158;8.658;2023-02-28T17:21:31;9.75;;;6.65;;
35110;SDS011;21290;50.158;8.658;2023-02-28T17:23:59;13.07;;;6.60;;
35110;SDS011;21290;50.158;8.658;2023-02-28T17:26:26;11.70;;;7.07;;
35110;SDS011;21290;50.158;8.658;2023-02-28T17:28:54;12.43;;;6.97;;
35110;SDS011;21290;50.158;8.658;2023-02-28T17:31:23;14.60;;;7.82;;